METAR Data
IDs: Format: Raw Decoded Include TAF

Data at: 1734 UTC 03 Jun 2020

KPIT 031651Z 25011G21KT 10SM FEW039 BKN090 BKN250 27/17 A2977 RMK AO2 SLP076 T02720167

KPIT 031501Z 0315/0418 26010G16KT P6SM BKN080
  FM032100 27012G20KT 6SM -TSRA BKN035CB
  FM040100 25005KT 6SM -SHRA VCTS BKN035CB
  FM040400 21004KT P6SM BKN025